createdAt,value
2018-07-14T00:02:00.164Z,99.90
2018-07-14T00:04:28.371Z,99.90
2018-07-14T00:09:24.520Z,99.90
2018-07-14T00:14:20.747Z,99.90
2018-07-14T00:16:48.932Z,99.90
2018-07-14T00:21:45.029Z,99.90
2018-07-14T00:24:13.249Z,99.90
2018-07-14T00:26:41.401Z,99.90
2018-07-14T00:29:09.572Z,99.90
2018-07-14T00:31:37.768Z,99.90
2018-07-14T00:34:06.203Z,99.90
2018-07-14T00:36:34.451Z,99.90
2018-07-14T00:39:02.663Z,99.90
2018-07-14T00:41:30.828Z,99.90
2018-07-14T00:43:59.004Z,99.90
2018-07-14T00:46:27.199Z,99.90
2018-07-14T00:48:55.372Z,99.90
2018-07-14T00:51:23.560Z,99.90
2018-07-14T00:56:20.632Z,99.90
2018-07-14T01:03:44.699Z,99.90
2018-07-14T01:06:12.875Z,99.90
2018-07-14T01:08:41.059Z,99.90
2018-07-14T01:11:09.235Z,99.90
2018-07-14T01:13:37.412Z,99.90
2018-07-14T01:16:05.752Z,99.90
2018-07-14T01:18:34.051Z,99.90
2018-07-14T01:21:02.252Z,99.90
2018-07-14T01:23:30.432Z,99.90
2018-07-14T01:28:26.559Z,99.90
2018-07-14T01:30:54.719Z,99.90
2018-07-14T01:33:22.908Z,99.90
2018-07-14T01:35:51.083Z,99.90
2018-07-14T01:38:19.301Z,99.90
2018-07-14T01:40:47.481Z,99.90
2018-07-14T01:43:15.655Z,99.90
2018-07-14T01:45:43.857Z,99.90
2018-07-14T01:48:12.044Z,99.90
2018-07-14T01:50:40.219Z,99.90
2018-07-14T01:53:08.395Z,99.90
2018-07-14T01:55:36.633Z,99.90
2018-07-14T01:58:04.812Z,99.90
2018-07-14T02:00:33.019Z,99.90
2018-07-14T02:03:01.205Z,99.90
2018-07-14T02:07:57.336Z,99.90
2018-07-14T02:10:25.609Z,99.90
2018-07-14T02:12:53.789Z,99.90
2018-07-14T02:17:49.957Z,99.90
2018-07-14T02:20:18.211Z,99.90
2018-07-14T02:25:14.379Z,99.90
2018-07-14T02:27:42.567Z,99.90
2018-07-14T02:30:10.760Z,99.90
2018-07-14T02:32:38.924Z,99.90
2018-07-14T02:35:07.111Z,99.90
2018-07-14T02:37:35.288Z,99.90
2018-07-14T02:40:03.503Z,99.90
2018-07-14T02:44:59.591Z,99.90
2018-07-14T02:47:27.768Z,99.90
2018-07-14T02:49:56.027Z,99.90
2018-07-14T02:52:24.224Z,99.90
2018-07-14T02:54:52.420Z,99.90
2018-07-14T02:57:20.589Z,99.90
2018-07-14T02:59:48.850Z,99.90
2018-07-14T03:04:44.944Z,99.90
2018-07-14T03:07:13.145Z,99.90
2018-07-14T03:09:41.371Z,99.90
2018-07-14T03:12:09.796Z,99.90
2018-07-14T03:14:38.003Z,99.90
2018-07-14T03:17:06.175Z,99.90
2018-07-14T03:19:34.780Z,99.90
2018-07-14T03:24:30.938Z,99.90
2018-07-14T03:29:27.107Z,99.90
2018-07-14T03:31:55.283Z,99.90
2018-07-14T03:34:23.500Z,99.90
2018-07-14T03:36:51.695Z,99.90
2018-07-14T03:41:47.898Z,99.90
2018-07-14T03:44:16.092Z,99.90
2018-07-14T03:46:44.289Z,99.90
2018-07-14T03:51:40.408Z,99.90
2018-07-14T03:54:08.663Z,99.90
2018-07-14T03:56:36.830Z,99.90
2018-07-14T03:59:05.448Z,99.90
2018-07-14T04:01:33.640Z,99.90
2018-07-14T04:06:29.876Z,99.90
2018-07-14T04:08:58.008Z,99.90
2018-07-14T04:11:26.183Z,99.90
2018-07-14T04:13:54.364Z,99.90
2018-07-14T04:16:22.537Z,99.90
2018-07-14T04:18:50.716Z,99.90
2018-07-14T04:21:19.407Z,99.90
2018-07-14T04:23:47.579Z,99.90
2018-07-14T04:26:15.752Z,99.90
2018-07-14T04:28:43.942Z,99.90
2018-07-14T04:31:12.118Z,99.90
2018-07-14T04:36:08.297Z,99.90
2018-07-14T04:38:36.492Z,99.90
2018-07-14T04:41:04.687Z,99.90
2018-07-14T04:43:32.867Z,99.90
2018-07-14T04:46:01.055Z,99.90
2018-07-14T04:50:57.323Z,99.90
2018-07-14T04:53:25.502Z,99.90
2018-07-14T04:55:53.691Z,99.90
2018-07-14T04:58:21.868Z,99.90
2018-07-14T05:00:50.061Z,99.90
2018-07-14T05:03:18.935Z,99.90
2018-07-14T05:05:47.108Z,99.90
2018-07-14T05:08:15.301Z,99.90
2018-07-14T05:10:43.472Z,99.90
2018-07-14T05:13:11.656Z,99.90
2018-07-14T05:15:39.852Z,99.90
2018-07-14T05:18:08.036Z,99.90
2018-07-14T05:23:04.176Z,99.90
2018-07-14T05:28:00.347Z,99.90
2018-07-14T05:30:28.629Z,99.90
2018-07-14T05:32:56.904Z,99.90
2018-07-14T05:35:25.104Z,99.90
2018-07-14T05:37:53.323Z,99.90
2018-07-14T05:40:21.506Z,99.90
2018-07-14T05:42:49.699Z,99.90
2018-07-14T05:45:17.945Z,99.90
2018-07-14T05:50:14.051Z,99.90
2018-07-14T05:52:42.220Z,99.90
2018-07-14T05:55:10.422Z,99.90
2018-07-14T05:57:38.625Z,99.90
2018-07-14T06:00:07.712Z,99.90
2018-07-14T06:02:36.139Z,99.90
2018-07-14T06:05:04.339Z,99.90
2018-07-14T06:07:32.523Z,99.90
2018-07-14T06:12:28.803Z,99.90
2018-07-14T06:14:56.986Z,99.90
2018-07-14T06:17:25.231Z,99.90
2018-07-14T06:19:53.399Z,99.90
2018-07-14T06:22:21.568Z,99.90
2018-07-14T06:24:49.731Z,99.90
2018-07-14T06:29:46.713Z,99.90
2018-07-14T06:34:43.052Z,99.90
2018-07-14T06:37:11.269Z,99.90
2018-07-14T06:39:39.432Z,99.90
2018-07-14T06:42:07.615Z,99.90
2018-07-14T06:44:35.826Z,99.90
2018-07-14T06:47:03.989Z,99.90
2018-07-14T06:49:32.224Z,99.90
2018-07-14T06:52:00.388Z,99.90
2018-07-14T06:54:28.577Z,99.90
2018-07-14T06:56:56.772Z,99.90
2018-07-14T06:59:24.984Z,99.90
2018-07-14T07:04:21.143Z,99.90
2018-07-14T07:06:49.371Z,99.90
2018-07-14T07:09:17.592Z,99.90
2018-07-14T07:11:45.779Z,99.90
2018-07-14T07:14:14.059Z,99.90
2018-07-14T07:16:42.388Z,99.90
2018-07-14T07:19:10.618Z,99.90
2018-07-14T07:21:38.809Z,99.90
2018-07-14T07:24:07.027Z,99.90
2018-07-14T07:29:03.190Z,99.90
2018-07-14T07:31:31.373Z,99.90
2018-07-14T07:33:59.586Z,99.90
2018-07-14T07:36:27.756Z,99.90
2018-07-14T07:38:55.942Z,99.90
2018-07-14T07:41:24.131Z,99.90
2018-07-14T07:46:20.307Z,99.90
2018-07-14T07:48:48.477Z,99.90
2018-07-14T07:51:16.667Z,99.90
2018-07-14T07:53:44.881Z,99.90
2018-07-14T07:56:13.271Z,99.90
2018-07-14T08:01:09.631Z,99.90
2018-07-14T08:03:37.938Z,99.90
2018-07-14T08:06:06.216Z,99.90
2018-07-14T08:08:34.404Z,99.90
2018-07-14T08:11:02.585Z,99.90
2018-07-14T08:13:30.789Z,99.90
2018-07-14T08:18:26.893Z,99.90
2018-07-14T08:20:55.069Z,99.90
2018-07-14T08:23:23.257Z,99.90
2018-07-14T08:25:51.436Z,99.90
2018-07-14T08:28:19.670Z,99.90
2018-07-14T08:30:47.848Z,99.90
2018-07-14T08:33:16.081Z,99.90
2018-07-14T08:40:40.311Z,99.90
2018-07-14T08:43:08.474Z,99.90
2018-07-14T08:48:04.663Z,99.90
2018-07-14T08:50:32.895Z,99.90
2018-07-14T08:55:29.075Z,99.90
2018-07-14T08:57:57.264Z,99.90
2018-07-14T09:00:25.432Z,99.90
2018-07-14T09:02:53.619Z,99.90
2018-07-14T09:05:21.830Z,99.90
2018-07-14T09:10:17.931Z,99.90
2018-07-14T09:12:46.115Z,99.90
2018-07-14T09:15:14.313Z,99.90
2018-07-14T09:20:10.464Z,99.90
2018-07-14T09:22:38.667Z,99.90
2018-07-14T09:25:06.879Z,99.90
2018-07-14T09:27:35.058Z,99.90
2018-07-14T09:30:03.252Z,99.90
2018-07-14T09:34:59.392Z,99.90
2018-07-14T09:39:55.507Z,99.90
2018-07-14T09:42:23.711Z,99.90
2018-07-14T09:49:47.844Z,99.90
2018-07-14T09:52:16.235Z,99.90
2018-07-14T09:54:44.439Z,99.90
2018-07-14T09:57:12.631Z,99.90
2018-07-14T09:59:40.800Z,99.90
2018-07-14T10:02:09.339Z,99.90
2018-07-14T10:04:37.574Z,99.90
2018-07-14T10:07:05.921Z,99.80
2018-07-14T10:09:34.091Z,99.90
2018-07-14T10:12:02.273Z,99.90
2018-07-14T10:14:30.460Z,99.60
2018-07-14T10:16:58.656Z,99.40
2018-07-14T10:19:26.843Z,99.20
2018-07-14T10:21:55.025Z,99.00
2018-07-14T10:24:23.188Z,99.00
2018-07-14T10:26:51.363Z,99.10
2018-07-14T10:29:20.147Z,99.40
2018-07-14T10:31:48.313Z,99.50
2018-07-14T10:34:16.496Z,98.90
2018-07-14T10:36:44.681Z,98.30
2018-07-14T10:39:12.859Z,98.60
2018-07-14T10:41:41.040Z,98.60
2018-07-14T10:44:09.205Z,97.90
2018-07-14T10:46:37.445Z,97.80
2018-07-14T10:49:05.543Z,97.80
2018-07-14T10:51:33.787Z,97.70
2018-07-14T10:54:01.912Z,97.90
2018-07-14T10:56:30.104Z,97.50
2018-07-14T10:58:58.277Z,98.10
2018-07-14T11:01:26.484Z,97.60
2018-07-14T11:03:54.656Z,97.20
2018-07-14T11:06:22.831Z,97.30
2018-07-14T11:08:50.991Z,97.70
2018-07-14T11:11:19.196Z,97.70
2018-07-14T11:13:47.382Z,97.10
2018-07-14T11:16:15.588Z,96.60
2018-07-14T11:18:43.739Z,96.70
2018-07-14T11:21:11.952Z,96.40
2018-07-14T11:23:40.133Z,96.20
2018-07-14T11:26:08.302Z,96.20
2018-07-14T11:28:36.483Z,95.80
2018-07-14T11:31:04.685Z,94.70
2018-07-14T11:38:28.756Z,95.70
2018-07-14T11:40:56.988Z,95.20
2018-07-14T11:43:25.378Z,94.80
2018-07-14T11:45:53.552Z,95.40
2018-07-14T11:48:21.695Z,95.40
2018-07-14T11:50:49.892Z,95.30
2018-07-14T11:53:18.063Z,95.80
2018-07-14T11:55:46.241Z,95.20
2018-07-14T11:58:14.452Z,95.20
2018-07-14T12:00:42.638Z,95.60
2018-07-14T12:03:10.799Z,94.80
2018-07-14T12:05:38.972Z,94.80
2018-07-14T12:08:07.139Z,95.00
2018-07-14T12:10:35.319Z,94.30
2018-07-14T12:13:03.509Z,94.80
2018-07-14T12:17:59.716Z,94.20
2018-07-14T12:20:27.896Z,94.30
2018-07-14T12:22:56.080Z,93.80
2018-07-14T12:25:24.333Z,93.60
2018-07-14T12:27:52.525Z,93.70
2018-07-14T12:30:20.938Z,94.10
2018-07-14T12:32:49.011Z,93.00
2018-07-14T12:37:45.277Z,93.10
2018-07-14T12:40:13.506Z,92.50
2018-07-14T12:42:41.715Z,92.50
2018-07-14T12:45:09.892Z,92.80
2018-07-14T12:47:38.067Z,92.40
2018-07-14T12:50:06.304Z,91.70
2018-07-14T12:52:34.493Z,91.40
2018-07-14T12:57:30.623Z,91.70
2018-07-14T12:59:58.869Z,91.50
2018-07-14T13:04:54.978Z,90.80
2018-07-14T13:07:23.184Z,90.20
2018-07-14T13:09:51.360Z,90.40
2018-07-14T13:12:19.543Z,89.60
2018-07-14T13:14:47.731Z,87.70
2018-07-14T13:17:15.971Z,86.70
2018-07-14T13:19:44.261Z,86.00
2018-07-14T13:22:12.480Z,86.80
2018-07-14T13:27:08.633Z,85.20
2018-07-14T13:29:36.865Z,86.80
2018-07-14T13:32:05.070Z,86.40
2018-07-14T13:34:33.271Z,86.60
2018-07-14T13:37:01.473Z,85.80
2018-07-14T13:39:29.639Z,85.70
2018-07-14T13:41:57.809Z,86.90
2018-07-14T13:44:26.008Z,85.90
2018-07-14T13:46:54.204Z,84.90
2018-07-14T13:54:18.494Z,84.30
2018-07-14T13:56:46.687Z,84.40
2018-07-14T13:59:14.863Z,84.30
2018-07-14T14:01:43.100Z,83.70
2018-07-14T14:04:11.360Z,82.00
2018-07-14T14:06:39.575Z,81.70
2018-07-14T14:09:07.895Z,82.80
2018-07-14T14:11:36.267Z,82.00
2018-07-14T14:14:04.455Z,83.60
2018-07-14T14:16:32.644Z,84.10
2018-07-14T14:19:00.835Z,84.20
2018-07-14T14:21:29.035Z,82.00
2018-07-14T14:23:57.223Z,82.50
2018-07-14T14:26:25.406Z,83.30
2018-07-14T14:28:53.592Z,82.10
2018-07-14T14:31:21.773Z,81.70
2018-07-14T14:33:49.944Z,80.90
2018-07-14T14:36:18.178Z,81.30
2018-07-14T14:38:46.320Z,82.70
2018-07-14T14:41:14.505Z,80.10
2018-07-14T14:43:43.284Z,80.10
2018-07-14T14:46:11.503Z,78.80
2018-07-14T14:48:39.697Z,79.70
2018-07-14T14:51:07.864Z,79.80
2018-07-14T14:53:36.076Z,79.80
2018-07-14T14:56:04.311Z,79.00
2018-07-14T14:58:32.451Z,77.40
2018-07-14T15:01:00.652Z,76.80
2018-07-14T15:03:28.947Z,75.70
2018-07-14T15:05:57.228Z,76.70
2018-07-14T15:08:25.461Z,76.50
2018-07-14T15:13:21.620Z,77.40
2018-07-14T15:15:49.795Z,76.30
2018-07-14T15:18:18.813Z,77.00
2018-07-14T15:20:46.984Z,76.30
2018-07-14T15:23:15.178Z,75.00
2018-07-14T15:25:43.406Z,75.40
2018-07-14T15:30:39.716Z,74.40
2018-07-14T15:33:08.228Z,73.70
2018-07-14T15:35:36.241Z,73.90
2018-07-14T15:38:04.589Z,73.50
2018-07-14T15:40:32.752Z,73.60
2018-07-14T15:43:00.959Z,74.50
2018-07-14T15:45:29.141Z,74.50
2018-07-14T15:47:57.327Z,73.30
2018-07-14T15:50:25.508Z,72.00
2018-07-14T15:52:53.678Z,72.80
2018-07-14T15:55:21.860Z,73.20
2018-07-14T15:57:50.071Z,72.70
2018-07-14T16:00:18.329Z,71.50
2018-07-14T16:02:46.477Z,71.30
2018-07-14T16:05:14.637Z,71.20
2018-07-14T16:07:42.825Z,71.30
2018-07-14T16:10:11.000Z,71.30
2018-07-14T16:12:39.212Z,71.60
2018-07-14T16:17:35.316Z,71.10
2018-07-14T16:20:03.544Z,70.70
2018-07-14T16:22:31.733Z,70.70
2018-07-14T16:24:59.900Z,69.80
2018-07-14T16:27:28.096Z,69.50
2018-07-14T16:29:56.271Z,68.80
2018-07-14T16:32:24.528Z,68.90
2018-07-14T16:34:52.719Z,69.80
2018-07-14T16:37:21.803Z,69.50
2018-07-14T16:39:49.996Z,69.60
2018-07-14T16:42:18.236Z,70.20
2018-07-14T16:44:46.412Z,69.00
2018-07-14T16:47:14.617Z,70.60
2018-07-14T16:49:42.800Z,70.60
2018-07-14T16:52:11.000Z,70.10
2018-07-14T16:57:07.127Z,70.00
2018-07-14T16:59:35.304Z,69.00
2018-07-14T17:04:31.498Z,70.00
2018-07-14T17:06:59.611Z,70.30
2018-07-14T17:09:27.814Z,70.70
2018-07-14T17:14:23.918Z,71.70
2018-07-14T17:16:52.093Z,72.40
2018-07-14T17:19:20.276Z,73.10
2018-07-14T17:21:48.508Z,72.80
2018-07-14T17:24:16.734Z,72.00
2018-07-14T17:29:12.901Z,73.10
2018-07-14T17:31:41.088Z,74.30
2018-07-14T17:34:09.308Z,74.50
2018-07-14T17:36:37.493Z,75.20
2018-07-14T17:39:07.043Z,74.40
2018-07-14T17:41:35.230Z,74.20
2018-07-14T17:44:03.391Z,74.10
2018-07-14T17:46:31.676Z,75.70
2018-07-14T17:48:59.869Z,76.20
2018-07-14T17:51:28.057Z,76.60
2018-07-14T17:53:56.252Z,76.40
2018-07-14T17:58:52.384Z,78.10
2018-07-14T18:01:20.544Z,78.00
2018-07-14T18:03:48.719Z,78.30
2018-07-14T18:06:16.911Z,79.10
2018-07-14T18:11:13.095Z,80.30
2018-07-14T18:13:42.165Z,81.00
2018-07-14T18:18:38.286Z,81.80
2018-07-14T18:21:06.743Z,82.40
2018-07-14T18:23:34.981Z,83.60
2018-07-14T18:26:03.175Z,84.20
2018-07-14T18:28:31.346Z,84.20
2018-07-14T18:30:59.635Z,84.80
2018-07-14T18:33:27.881Z,85.30
2018-07-14T18:35:56.053Z,86.20
2018-07-14T18:38:24.238Z,86.60
2018-07-14T18:40:52.396Z,87.80
2018-07-14T18:43:20.616Z,88.00
2018-07-14T18:45:48.807Z,88.80
2018-07-14T18:48:17.033Z,90.10
2018-07-14T18:50:45.200Z,90.60
2018-07-14T18:53:13.391Z,90.50
2018-07-14T18:55:41.629Z,91.00
2018-07-14T18:58:09.889Z,91.30
2018-07-14T19:03:06.096Z,91.70
2018-07-14T19:05:34.340Z,92.10
2018-07-14T19:08:02.542Z,92.40
2018-07-14T19:10:30.724Z,92.50
2018-07-14T19:12:58.975Z,92.80
2018-07-14T19:15:27.160Z,93.10
2018-07-14T19:17:55.340Z,93.40
2018-07-14T19:20:23.513Z,93.60
2018-07-14T19:22:51.708Z,93.90
2018-07-14T19:25:20.741Z,93.90
2018-07-14T19:27:49.027Z,94.20
2018-07-14T19:30:17.373Z,94.60
2018-07-14T19:32:45.681Z,94.70
2018-07-14T19:35:13.956Z,95.20
2018-07-14T19:37:42.129Z,95.70
2018-07-14T19:40:10.341Z,95.80
2018-07-14T19:42:38.557Z,96.00
2018-07-14T19:45:06.776Z,96.20
2018-07-14T19:47:34.973Z,96.50
2018-07-14T19:50:03.193Z,96.80
2018-07-14T19:52:31.511Z,97.20
2018-07-14T19:54:59.745Z,97.40
2018-07-14T19:57:28.048Z,97.50
2018-07-14T19:59:56.424Z,97.90
2018-07-14T20:02:24.644Z,98.20
2018-07-14T20:07:20.869Z,98.70
2018-07-14T20:09:49.071Z,99.00
2018-07-14T20:12:17.340Z,99.40
2018-07-14T20:14:45.563Z,99.60
2018-07-14T20:17:13.759Z,99.90
2018-07-14T20:19:42.188Z,99.90
2018-07-14T20:22:10.375Z,99.90
2018-07-14T20:24:38.600Z,99.90
2018-07-14T20:27:06.783Z,99.90
2018-07-14T20:29:34.993Z,99.90
2018-07-14T20:32:03.280Z,99.90
2018-07-14T20:34:31.499Z,99.90
2018-07-14T20:36:59.701Z,99.90
2018-07-14T20:41:55.929Z,99.90
2018-07-14T20:46:52.089Z,99.90
2018-07-14T20:49:20.291Z,99.90
2018-07-14T20:51:48.488Z,99.90
2018-07-14T20:54:16.807Z,99.90
2018-07-14T20:59:12.980Z,99.90
2018-07-14T21:01:41.175Z,99.90
2018-07-14T21:04:09.400Z,99.90
2018-07-14T21:11:34.007Z,99.90
2018-07-14T21:16:30.191Z,99.90
2018-07-14T21:18:58.383Z,99.90
2018-07-14T21:21:26.819Z,99.90
2018-07-14T21:23:54.835Z,99.90
2018-07-14T21:26:23.044Z,99.90
2018-07-14T21:31:19.185Z,99.90
2018-07-14T21:33:47.372Z,99.90
2018-07-14T21:41:11.721Z,99.90
2018-07-14T21:43:39.922Z,99.90
2018-07-14T21:46:08.099Z,99.90
2018-07-14T21:48:36.284Z,99.90
2018-07-14T21:51:04.488Z,99.90
2018-07-14T21:53:32.681Z,99.90
2018-07-14T21:56:00.867Z,99.90
2018-07-14T21:58:29.060Z,99.90
2018-07-14T22:01:04.911Z,99.90
2018-07-14T22:03:33.860Z,99.90
2018-07-14T22:06:02.339Z,99.90
2018-07-14T22:13:26.456Z,99.90
2018-07-14T22:15:54.660Z,99.90
2018-07-14T22:18:22.819Z,99.90
2018-07-14T22:20:51.018Z,99.90
2018-07-14T22:23:19.242Z,99.90
2018-07-14T22:28:15.379Z,99.90
2018-07-14T22:33:11.504Z,99.90
2018-07-14T22:35:39.701Z,99.90
2018-07-14T22:38:08.105Z,99.90
2018-07-14T22:40:36.299Z,99.90
2018-07-14T22:43:04.496Z,99.90
2018-07-14T22:45:32.667Z,99.90
2018-07-14T22:48:00.847Z,99.90
2018-07-14T22:50:29.044Z,99.90
2018-07-14T22:55:25.353Z,99.90
2018-07-14T22:57:53.541Z,99.90
2018-07-14T23:00:21.768Z,99.90
2018-07-14T23:02:49.942Z,99.90
2018-07-14T23:05:18.136Z,99.90
2018-07-14T23:07:46.312Z,99.90
2018-07-14T23:10:14.486Z,99.90
2018-07-14T23:12:42.674Z,99.90
2018-07-14T23:15:10.856Z,99.90
2018-07-14T23:17:39.044Z,99.90
2018-07-14T23:25:03.500Z,99.90
2018-07-14T23:27:31.675Z,99.90
2018-07-14T23:29:59.828Z,99.90
2018-07-14T23:32:28.020Z,99.90
2018-07-14T23:34:56.199Z,99.90
2018-07-14T23:37:24.571Z,99.90
2018-07-14T23:39:52.745Z,99.90
2018-07-14T23:42:21.567Z,99.90
2018-07-14T23:44:49.754Z,99.90
2018-07-14T23:47:17.993Z,99.90
2018-07-14T23:49:46.155Z,99.90
2018-07-14T23:52:14.328Z,99.90
2018-07-14T23:54:42.508Z,99.90
2018-07-14T23:57:10.680Z,99.90
2018-07-14T23:59:39.052Z,99.90
